KEWB/EWB METAR and TAF weather

Enter ICAO airport designator
Station Type Date Time Source
KEWB METAR 2021/09/23 16:53 UTC NOAA

KEWB 231653Z 13015G22KT 10SM FEW030 BKN075 27/20 A3008 RMK AO2 SLP186 T02670200


Station Type Date Time Source
KEWB Decoded METAR 2021/09/23 16:53 UTC NOAA

NEW BEDFORD REGIONAL AIRPORT, MA, United States (KEWB) 41-41N 070-58W 23M
Sep 23, 2021 - 12:53 PM EDT / 2021.09.23 1653 UTC
Wind: from the SE (130 degrees) at 17 MPH (15 KT) gusting to 25 MPH (22 KT):0
Visibility: 10 mile(s):0
Sky conditions: mostly cloudy
Temperature: 80.1 F (26.7 C)
Dew Point: 68.0 F (20.0 C)
Relative Humidity: 66%
Pressure (altimeter): 30.08 in. Hg (1018 hPa)
ob: KEWB 231653Z 13015G22KT 10SM FEW030 BKN075 27/20 A3008 RMK AO2 SLP186 T02670200
cycle: 17

Station Type Date Time Source
KEWB TAF UTC NOAA

Error!

Example: see airport list